Sawyer International Airport

Airport
ICAO code: 
KSAW
Summary
ICAO Region: 
NAM
Territory: 
Location: 
Marquette / Gwinn, Michigan,
Coordinates: 
Aerial View: 
46° 21' 16.154" N, 87° 23' 40.141" W
Airport CFIT: 
Altimeter Temperature Error Correction
Metar
Observation
KSAW 020958Z AUTO 30015G25KT 10SM OVC031 05/M01 A2935 RMK AO2 T00451011
Station
Marquette, Sawyer International Airport
Date/Time
2021-12-02 09:58:00
Wind direction
300°
Wind speed
15 kts
Lowest cloud amount
overcast
Temperature
4.5°C
Dew point
-1.1°C
Humidity
66%
Weather condition
n/a

Description

Sawyer International Airport is a public airport located 27 km south of the central business district of Marquette, a city in Marquette County, Michigan.

Climatology

Humid Continental climate (Köppen climate classification Dfb) - Variable weather patterns and a large seasonal temperature variance. Summers are often warm and humid with frequent thunderstorms and winters can be very cold with frequent snowfall and persistent snow cover.

Runways

Designator Length Width Surface Rops
1/19 3770 46 PEM Yes/Yes
Airport map: 
Aerial View: 

SKYbrary Partners:

Safety knowledge contributed by: